Time;durP1;ratioP1;P1;durP2;ratioP2;P2;SDS_P1;SDS_P2;PMS_P1;PMS_P2;Temp;Humidity;BMP_temperature;BMP_pressure;BME280_temperature;BME280_humidity;BME280_pressure;Samples;Min_cycle;Max_cycle;Signal;HPM_P1;HPM_P2
2022/07/18 00:01:06;;;;;;;2.17;0.90;;;21.20;43.20;;;;;;5092097;28;20115;-74
2022/07/18 00:03:32;;;;;;;1.55;0.63;;;21.10;43.50;;;;;;5092267;28;20471;-73
2022/07/18 00:05:57;;;;;;;0.55;0.45;;;21.10;43.80;;;;;;5092298;28;20103;-76
2022/07/18 00:08:23;;;;;;;2.78;0.93;;;21.00;43.80;;;;;;5092262;28;20457;-73
2022/07/18 00:10:49;;;;;;;1.42;0.70;;;21.00;44.00;;;;;;5092272;28;20028;-73
2022/07/18 00:13:14;;;;;;;2.58;1.08;;;20.90;44.00;;;;;;5092227;28;20043;-73
2022/07/18 00:15:40;;;;;;;0.73;0.60;;;20.90;44.20;;;;;;5092144;28;20024;-74
2022/07/18 00:18:06;;;;;;;0.88;0.70;;;20.80;44.30;;;;;;5091717;28;20089;-73
2022/07/18 00:20:32;;;;;;;1.52;0.85;;;20.80;45.00;;;;;;5092419;28;20039;-74
2022/07/18 00:22:57;;;;;;;2.15;0.80;;;20.70;44.50;;;;;;5092537;28;20028;-74
2022/07/18 00:25:23;;;;;;;1.25;0.80;;;20.70;44.50;;;;;;5092202;28;20035;-73
2022/07/18 00:27:49;;;;;;;0.80;0.80;;;20.60;44.80;;;;;;5092696;28;20028;-76
2022/07/18 00:30:14;;;;;;;1.80;0.93;;;20.60;44.80;;;;;;5092188;28;20361;-73
2022/07/18 00:32:40;;;;;;;4.15;1.25;;;20.60;44.80;;;;;;5092903;28;20092;-73
2022/07/18 00:35:06;;;;;;;1.15;1.00;;;20.60;45.10;;;;;;5092141;28;20028;-73
2022/07/18 00:37:32;;;;;;;3.22;0.95;;;20.60;45.20;;;;;;5092807;28;20044;-73
2022/07/18 00:39:57;;;;;;;1.20;0.90;;;20.60;45.70;;;;;;5092277;28;20028;-75
2022/07/18 00:42:23;;;;;;;1.90;0.93;;;20.60;45.70;;;;;;5092277;28;20383;-73
2022/07/18 00:44:56;;;;;;;1.90;0.80;;;20.50;45.70;;;;;;5092661;28;20024;-73
2022/07/18 00:47:22;;;;;;;1.65;1.20;;;20.50;46.00;;;;;;5092384;28;20426;-73
2022/07/18 00:49:47;;;;;;;2.00;0.80;;;20.50;46.90;;;;;;5092602;28;20103;-73
2022/07/18 00:52:13;;;;;;;1.88;0.90;;;20.50;47.00;;;;;;5091880;28;20028;-73
2022/07/18 00:54:39;;;;;;;2.33;1.10;;;20.50;48.30;;;;;;5092223;28;20081;-74
2022/07/18 00:57:05;;;;;;;1.45;1.02;;;20.50;48.90;;;;;;5091834;28;20383;-74
2022/07/18 01:02:15;;;;;;;3.28;1.30;;;20.50;51.30;;;;;;5094575;28;20089;-74
2022/07/18 01:04:41;;;;;;;2.70;1.13;;;20.50;52.40;;;;;;5096266;28;20036;-73
2022/07/18 01:07:07;;;;;;;0.80;0.80;;;20.60;52.80;;;;;;5095413;28;20515;-74
2022/07/18 01:09:33;;;;;;;1.70;1.15;;;20.60;53.40;;;;;;5095746;28;20115;-73
2022/07/18 01:11:59;;;;;;;1.42;1.05;;;20.60;53.40;;;;;;5095415;28;20031;-73
2022/07/18 01:14:25;;;;;;;1.40;0.90;;;20.60;53.30;;;;;;5094745;28;20024;-74
2022/07/18 01:16:51;;;;;;;1.10;0.90;;;20.60;53.30;;;;;;5095922;28;20483;-73
2022/07/18 01:19:17;;;;;;;1.65;1.02;;;20.60;53.10;;;;;;5095229;28;20036;-75
2022/07/18 01:21:42;;;;;;;0.75;0.70;;;20.60;53.20;;;;;;5095810;28;20110;-73
2022/07/18 01:24:08;;;;;;;2.15;1.02;;;20.60;53.10;;;;;;5095140;28;20413;-73
2022/07/18 01:26:34;;;;;;;1.30;1.20;;;20.60;52.70;;;;;;5095176;28;20026;-74
2022/07/18 01:29:00;;;;;;;1.95;1.10;;;20.60;53.10;;;;;;5095037;28;20044;-74
2022/07/18 01:31:25;;;;;;;1.48;1.08;;;20.50;52.80;;;;;;5094819;28;20016;-74
2022/07/18 01:33:54;;;;;;;1.30;0.90;;;20.40;53.20;;;;;;5094993;28;20487;-73
2022/07/18 01:36:20;;;;;;;5.25;1.15;;;20.40;53.20;;;;;;5094528;28;20032;-74
2022/07/18 01:38:45;;;;;;;0.85;0.70;;;20.40;53.30;;;;;;5094836;28;20540;-74
2022/07/18 01:41:11;;;;;;;1.15;0.68;;;20.30;53.00;;;;;;5093465;28;20030;-74
2022/07/18 01:43:40;;;;;;;1.00;0.90;;;20.30;53.10;;;;;;5095346;28;20039;-75
2022/07/18 01:46:07;;;;;;;3.08;1.00;;;20.20;53.10;;;;;;5094703;28;20024;-74
2022/07/18 01:48:33;;;;;;;0.70;0.70;;;20.20;52.90;;;;;;5095276;28;20063;-74
2022/07/18 01:50:59;;;;;;;2.33;0.98;;;20.20;53.30;;;;;;5093654;28;20499;-74
2022/07/18 01:53:25;;;;;;;1.95;1.20;;;20.10;53.20;;;;;;5094582;28;20132;-76
2022/07/18 01:55:51;;;;;;;1.73;0.90;;;20.00;54.10;;;;;;5094691;28;20099;-76
2022/07/18 01:58:17;;;;;;;1.85;1.00;;;20.00;54.00;;;;;;5094283;28;20039;-74
2022/07/18 02:00:42;;;;;;;2.20;1.10;;;20.00;53.80;;;;;;5095296;28;20384;-73
2022/07/18 02:03:08;;;;;;;0.60;0.60;;;20.00;53.70;;;;;;5092877;28;20114;-74
2022/07/18 02:05:34;;;;;;;3.42;1.13;;;19.90;53.80;;;;;;5094385;28;20024;-73
2022/07/18 02:07:59;;;;;;;1.23;1.08;;;19.90;53.90;;;;;;5094744;28;20452;-73
2022/07/18 02:10:25;;;;;;;0.75;0.75;;;19.80;53.90;;;;;;5094466;28;20105;-74
2022/07/18 02:12:51;;;;;;;2.38;0.93;;;19.80;53.70;;;;;;5095174;28;20082;-74
2022/07/18 02:15:17;;;;;;;1.75;0.95;;;19.80;53.80;;;;;;5094799;28;20032;-73
2022/07/18 02:17:43;;;;;;;0.65;0.63;;;19.70;53.40;;;;;;5094732;28;20456;-73
2022/07/18 02:20:12;;;;;;;1.45;0.80;;;19.70;53.50;;;;;;5094518;28;20028;-73
2022/07/18 02:22:38;;;;;;;1.15;0.82;;;19.70;53.50;;;;;;5094898;28;20032;-73
2022/07/18 02:25:04;;;;;;;1.52;0.95;;;19.70;54.10;;;;;;5094568;28;20057;-73
2022/07/18 02:27:30;;;;;;;0.85;0.80;;;19.60;54.30;;;;;;5094451;28;20055;-73
2022/07/18 02:29:56;;;;;;;2.08;0.85;;;19.60;54.70;;;;;;5094069;28;20056;-74
2022/07/18 02:32:23;;;;;;;1.27;0.90;;;19.60;54.50;;;;;;5094429;28;20042;-74
2022/07/18 02:34:49;;;;;;;0.88;0.80;;;19.60;54.20;;;;;;5094623;28;20411;-74
2022/07/18 02:37:14;;;;;;;1.45;1.13;;;19.60;54.00;;;;;;5094149;28;20035;-74
2022/07/18 02:39:40;;;;;;;1.23;0.90;;;19.50;54.10;;;;;;5094150;28;20035;-76
2022/07/18 02:42:06;;;;;;;1.27;0.80;;;19.50;53.90;;;;;;5094117;28;20020;-74
2022/07/18 02:44:32;;;;;;;1.08;0.85;;;19.50;53.90;;;;;;5094523;28;20035;-72
2022/07/18 02:46:57;;;;;;;3.00;0.90;;;19.40;54.40;;;;;;5094065;28;20020;-74
2022/07/18 02:49:29;;;;;;;2.00;0.93;;;19.40;54.50;;;;;;5093689;28;20448;-74
2022/07/18 02:51:59;;;;;;;2.72;0.90;;;19.40;54.30;;;;;;5094057;28;20464;-74
2022/07/18 02:54:25;;;;;;;2.50;1.35;;;19.40;54.20;;;;;;5092578;28;20452;-74
2022/07/18 02:56:51;;;;;;;1.15;0.80;;;19.40;53.70;;;;;;5093975;28;20024;-73
2022/07/18 02:59:17;;;;;;;2.85;1.20;;;19.40;53.90;;;;;;5093746;28;20059;-74
2022/07/18 03:01:42;;;;;;;1.05;0.70;;;19.40;54.20;;;;;;5094113;28;20035;-74
2022/07/18 03:04:08;;;;;;;1.90;0.82;;;19.40;54.20;;;;;;5093398;28;20016;-74
2022/07/18 03:06:33;;;;;;;1.33;0.90;;;19.30;54.30;;;;;;5094069;28;20448;-74
2022/07/18 03:08:59;;;;;;;1.20;0.75;;;19.30;54.40;;;;;;5093576;28;20024;-74
2022/07/18 03:11:25;;;;;;;1.83;1.00;;;19.20;54.60;;;;;;5093580;28;20028;-74
2022/07/18 03:13:50;;;;;;;4.57;1.33;;;19.20;55.20;;;;;;5093869;28;20016;-74
2022/07/18 03:16:16;;;;;;;2.78;0.88;;;19.10;56.10;;;;;;5093438;28;20051;-74
2022/07/18 03:18:41;;;;;;;2.38;1.00;;;19.00;56.30;;;;;;5093753;28;20047;-74
2022/07/18 03:21:07;;;;;;;1.33;1.00;;;19.00;56.30;;;;;;5093145;28;20103;-84
2022/07/18 03:23:33;;;;;;;1.77;0.90;;;19.00;56.20;;;;;;5092956;28;20085;-73
2022/07/18 03:25:58;;;;;;;1.33;1.13;;;19.00;56.40;;;;;;5093102;28;20020;-73
2022/07/18 03:28:24;;;;;;;2.78;0.90;;;19.00;56.40;;;;;;5092174;28;20028;-73
2022/07/18 03:30:49;;;;;;;1.52;0.70;;;19.00;55.90;;;;;;5092588;28;20027;-73
2022/07/18 03:33:15;;;;;;;1.42;1.20;;;19.00;55.70;;;;;;5091280;28;20130;-73
2022/07/18 03:35:41;;;;;;;3.67;1.45;;;19.10;55.40;;;;;;5093457;28;20055;-73
2022/07/18 03:38:06;;;;;;;1.65;0.80;;;19.10;55.50;;;;;;5093455;28;20383;-73
2022/07/18 03:40:32;;;;;;;1.15;0.88;;;19.00;55.90;;;;;;5091646;28;20028;-73
2022/07/18 03:42:58;;;;;;;1.23;1.00;;;18.90;56.60;;;;;;5093073;28;20427;-73
2022/07/18 03:45:24;;;;;;;1.40;0.88;;;18.90;56.50;;;;;;5092839;28;20059;-73
2022/07/18 03:47:49;;;;;;;4.10;0.95;;;18.90;56.40;;;;;;5092882;28;20105;-73
2022/07/18 03:50:15;;;;;;;1.85;1.10;;;19.00;56.30;;;;;;5091466;28;20016;-74
2022/07/18 03:52:41;;;;;;;2.22;1.10;;;19.00;56.60;;;;;;5093701;28;20376;-74
2022/07/18 03:55:07;;;;;;;1.25;1.00;;;18.90;57.20;;;;;;5093639;28;20024;-74
2022/07/18 03:57:33;;;;;;;3.47;1.25;;;18.90;57.20;;;;;;5089746;28;20115;-74
2022/07/18 03:59:58;;;;;;;2.58;0.88;;;18.90;57.50;;;;;;5092745;28;20439;-74
2022/07/18 04:02:24;;;;;;;2.70;1.00;;;19.00;57.20;;;;;;5092543;28;20027;-74
2022/07/18 04:04:50;;;;;;;2.80;1.20;;;19.00;57.20;;;;;;5093078;28;20024;-73
2022/07/18 04:07:15;;;;;;;1.27;0.93;;;19.00;57.40;;;;;;5092344;28;20427;-74
2022/07/18 04:09:41;;;;;;;1.70;1.17;;;19.00;57.10;;;;;;5092853;28;20020;-73
2022/07/18 04:12:06;;;;;;;1.83;1.05;;;19.10;57.00;;;;;;5092895;28;20028;-73
2022/07/18 04:14:32;;;;;;;1.75;1.17;;;19.10;57.40;;;;;;5093838;28;20035;-73
2022/07/18 04:16:58;;;;;;;2.80;1.60;;;19.10;57.30;;;;;;5106118;28;20032;-73
2022/07/18 04:19:24;;;;;;;2.72;1.20;;;19.20;57.20;;;;;;5096798;28;20024;-74
2022/07/18 04:21:50;;;;;;;3.47;1.30;;;19.30;57.60;;;;;;5109425;28;20016;-75
2022/07/18 04:24:15;;;;;;;1.88;1.17;;;19.20;57.50;;;;;;5098766;28;20042;-75
2022/07/18 04:26:41;;;;;;;2.15;1.38;;;19.30;57.70;;;;;;5100620;28;20464;-76
2022/07/18 04:29:07;;;;;;;1.25;1.10;;;19.40;56.60;;;;;;5092129;28;20389;-76
2022/07/18 04:31:32;;;;;;;2.20;0.90;;;19.40;55.80;;;;;;5082653;28;20482;-76
2022/07/18 04:33:58;;;;;;;0.82;0.82;;;19.60;55.30;;;;;;5071443;28;20400;-76
2022/07/18 04:36:25;;;;;;;1.65;1.08;;;19.70;54.80;;;;;;5074088;28;20043;-76
2022/07/18 04:38:51;;;;;;;1.83;1.20;;;19.90;55.00;;;;;;5076547;28;20056;-76
2022/07/18 04:41:19;;;;;;;2.28;0.90;;;19.90;53.90;;;;;;5076072;28;20448;-77
2022/07/18 04:43:45;;;;;;;1.98;1.05;;;20.00;54.30;;;;;;5076561;28;20016;-76
2022/07/18 04:46:10;;;;;;;1.95;1.33;;;20.10;53.20;;;;;;5076220;28;20024;-76
2022/07/18 04:48:38;;;;;;;1.90;0.93;;;20.20;52.80;;;;;;5075944;28;20123;-76
2022/07/18 04:51:04;;;;;;;3.78;1.05;;;20.40;52.60;;;;;;5076321;28;20461;-76
2022/07/18 04:53:29;;;;;;;1.05;0.90;;;20.50;52.70;;;;;;5075871;28;20025;-77
2022/07/18 04:55:55;;;;;;;1.70;1.20;;;20.70;51.90;;;;;;5076665;28;20035;-77
2022/07/18 04:58:21;;;;;;;1.25;0.90;;;20.90;51.50;;;;;;5075633;28;20116;-77
2022/07/18 05:00:47;;;;;;;3.33;1.27;;;21.10;51.60;;;;;;5076242;28;20093;-77
2022/07/18 05:03:14;;;;;;;2.17;1.30;;;21.20;52.00;;;;;;5075805;28;20032;-78
2022/07/18 05:05:40;;;;;;;3.40;1.75;;;21.40;52.20;;;;;;5079307;28;20028;-75
2022/07/18 05:08:06;;;;;;;2.13;1.40;;;21.60;52.10;;;;;;5096177;28;20077;-77
2022/07/18 05:10:32;;;;;;;3.65;1.30;;;21.90;51.90;;;;;;5095565;28;20332;-78
2022/07/18 05:12:58;;;;;;;4.78;1.70;;;22.00;51.20;;;;;;5095879;28;20032;-75
2022/07/18 05:15:25;;;;;;;3.13;1.42;;;22.30;51.40;;;;;;5095443;28;20146;-76
2022/07/18 05:17:51;;;;;;;3.03;1.48;;;22.50;50.10;;;;;;5096135;28;20064;-75
2022/07/18 05:20:19;;;;;;;1.73;1.13;;;22.70;49.20;;;;;;5095746;28;20103;-75
2022/07/18 05:22:45;;;;;;;3.10;1.42;;;23.00;49.20;;;;;;5096125;28;20028;-75
2022/07/18 05:25:11;;;;;;;2.78;1.50;;;23.10;47.90;;;;;;5095947;28;20028;-75
2022/07/18 05:27:38;;;;;;;2.15;1.45;;;23.30;47.50;;;;;;5095146;28;20028;-75
2022/07/18 05:30:06;;;;;;;5.45;1.50;;;23.60;46.70;;;;;;5094991;28;20457;-75
2022/07/18 05:32:32;;;;;;;2.10;1.15;;;23.80;46.10;;;;;;5092979;28;20352;-75
2022/07/18 05:34:57;;;;;;;2.33;1.35;;;24.00;46.00;;;;;;5094173;28;20029;-75
2022/07/18 05:37:23;;;;;;;7.72;1.83;;;24.10;45.80;;;;;;5093988;28;20024;-75
2022/07/18 05:39:52;;;;;;;7.03;1.98;;;24.30;45.90;;;;;;5093859;28;20051;-73
2022/07/18 05:42:18;;;;;;;2.60;1.70;;;24.50;45.20;;;;;;5091443;28;20430;-74
2022/07/18 05:44:44;;;;;;;3.72;1.80;;;24.70;45.10;;;;;;5094193;28;20054;-74
2022/07/18 05:47:10;;;;;;;8.13;1.60;;;25.00;44.90;;;;;;5093913;28;20028;-74
2022/07/18 05:49:35;;;;;;;5.85;1.52;;;25.10;44.50;;;;;;5093906;28;20111;-74
2022/07/18 05:52:01;;;;;;;4.50;2.08;;;25.30;44.70;;;;;;5094172;28;20024;-75
2022/07/18 05:54:27;;;;;;;2.95;1.30;;;25.30;44.90;;;;;;5093654;28;20126;-75
2022/07/18 05:56:53;;;;;;;4.13;1.60;;;25.50;44.60;;;;;;5093749;28;20111;-75
2022/07/18 05:59:20;;;;;;;3.20;1.00;;;25.80;43.90;;;;;;5093433;28;20036;-75
2022/07/18 06:01:45;;;;;;;1.98;1.50;;;25.90;43.40;;;;;;5093613;28;20028;-74
2022/07/18 06:04:11;;;;;;;2.47;1.05;;;26.10;42.80;;;;;;5093999;28;20415;-76
2022/07/18 06:06:37;;;;;;;1.88;1.10;;;26.30;42.20;;;;;;5093453;28;20024;-75
2022/07/18 06:09:04;;;;;;;2.47;1.08;;;26.30;40.90;;;;;;5093987;28;20051;-75
2022/07/18 06:11:30;;;;;;;2.63;1.75;;;26.40;40.00;;;;;;5093178;28;20113;-74
2022/07/18 06:13:55;;;;;;;3.33;0.60;;;26.70;39.60;;;;;;5093876;28;20108;-75
2022/07/18 06:16:21;;;;;;;2.83;1.10;;;26.90;37.70;;;;;;5093417;28;20039;-75
2022/07/18 06:18:47;;;;;;;5.22;1.27;;;27.30;37.80;;;;;;5093877;28;20032;-74
2022/07/18 06:21:12;;;;;;;3.00;0.80;;;27.60;36.70;;;;;;5093406;28;20028;-74
2022/07/18 06:23:38;;;;;;;1.55;0.95;;;27.60;35.40;;;;;;5093240;28;20059;-74
2022/07/18 06:26:04;;;;;;;0.98;0.95;;;27.20;35.50;;;;;;5093624;28;20031;-74
2022/07/18 06:28:30;;;;;;;2.13;0.80;;;27.30;36.00;;;;;;5053609;28;1121621;-74
2022/07/18 06:30:56;;;;;;;1.38;0.73;;;27.50;35.20;;;;;;5094309;28;20471;-74
2022/07/18 06:33:22;;;;;;;2.05;0.63;;;27.70;35.80;;;;;;5094094;28;20036;-75
2022/07/18 06:35:48;;;;;;;2.35;0.80;;;27.80;35.10;;;;;;5093595;28;20035;-75
2022/07/18 06:38:14;;;;;;;4.20;0.80;;;27.80;34.20;;;;;;5077842;28;20037;-75
2022/07/18 06:40:41;;;;;;;0.65;0.52;;;28.00;34.90;;;;;;5074287;28;20028;-75
2022/07/18 06:43:06;;;;;;;2.47;1.00;;;28.20;34.70;;;;;;5074098;28;20035;-74
2022/07/18 06:45:32;;;;;;;0.70;0.60;;;28.40;34.90;;;;;;5073618;28;20025;-75
2022/07/18 06:47:58;;;;;;;2.08;0.70;;;28.70;34.30;;;;;;5073857;28;20432;-74
2022/07/18 06:50:24;;;;;;;0.90;0.80;;;29.10;34.30;;;;;;5073323;28;20104;-74
2022/07/18 06:52:50;;;;;;;1.33;0.95;;;29.40;34.20;;;;;;5073873;28;20020;-75
2022/07/18 06:55:16;;;;;;;1.30;0.70;;;29.40;32.90;;;;;;5073406;28;20495;-74
2022/07/18 06:57:43;;;;;;;1.48;0.63;;;29.60;32.10;;;;;;5073473;28;20524;-75
2022/07/18 07:00:11;;;;;;;4.20;1.40;;;30.00;32.40;;;;;;5073605;28;20028;-75
2022/07/18 07:02:45;;;;;;;0.88;0.63;;;30.10;31.60;;;;;;5073356;28;20048;-75
2022/07/18 07:05:11;;;;;;;1.70;1.05;;;30.50;31.60;;;;;;5073778;28;20342;-75
2022/07/18 07:07:37;;;;;;;1.80;0.90;;;30.90;31.30;;;;;;5073425;28;20113;-75
2022/07/18 07:10:03;;;;;;;3.17;0.68;;;31.00;30.30;;;;;;5073662;28;20523;-75
2022/07/18 07:12:29;;;;;;;2.28;0.75;;;31.00;30.10;;;;;;5073012;28;20032;-75
2022/07/18 07:14:55;;;;;;;1.77;0.80;;;31.20;29.80;;;;;;5073244;28;20099;-75
2022/07/18 07:17:20;;;;;;;1.35;0.75;;;31.40;29.80;;;;;;5073092;28;20056;-75
2022/07/18 07:19:46;;;;;;;0.95;0.73;;;31.70;29.80;;;;;;5073279;28;20048;-75
2022/07/18 07:22:12;;;;;;;2.35;0.88;;;32.30;30.20;;;;;;5085934;28;20035;-74
2022/07/18 07:24:39;;;;;;;1.08;0.80;;;32.90;29.90;;;;;;5093439;28;20028;-75
2022/07/18 07:27:05;;;;;;;2.75;0.80;;;33.10;29.40;;;;;;5093898;28;20548;-74
2022/07/18 07:29:31;;;;;;;2.75;0.98;;;33.20;29.00;;;;;;5091808;28;20107;-74
2022/07/18 07:31:56;;;;;;;4.32;1.00;;;33.60;28.90;;;;;;5093405;28;20024;-75
2022/07/18 07:34:22;;;;;;;5.07;0.98;;;33.70;29.00;;;;;;5092933;28;20036;-75
2022/07/18 07:36:47;;;;;;;1.48;0.80;;;33.80;29.00;;;;;;5092861;28;20055;-75
2022/07/18 07:39:13;;;;;;;2.33;0.90;;;34.00;28.80;;;;;;5093628;28;20447;-76
2022/07/18 07:41:39;;;;;;;1.05;0.70;;;34.60;28.20;;;;;;5093283;28;20085;-74
2022/07/18 07:44:04;;;;;;;1.88;0.70;;;34.60;28.10;;;;;;5093367;28;20483;-74
2022/07/18 07:46:30;;;;;;;1.52;0.80;;;34.80;28.60;;;;;;5092951;28;20024;-74
2022/07/18 07:48:55;;;;;;;1.52;0.70;;;35.50;28.00;;;;;;5093266;28;20032;-75
2022/07/18 07:51:21;;;;;;;2.42;0.93;;;36.30;27.50;;;;;;5092929;28;20028;-75
2022/07/18 07:53:47;;;;;;;2.05;0.95;;;36.80;27.30;;;;;;5093232;28;20031;-74
2022/07/18 07:56:12;;;;;;;0.65;0.60;;;37.40;27.20;;;;;;5093104;28;20017;-74
2022/07/18 07:58:38;;;;;;;1.27;0.75;;;37.80;26.60;;;;;;5092427;28;20036;-74
2022/07/18 08:01:04;;;;;;;1.25;0.75;;;38.70;26.60;;;;;;5092557;28;20031;-74
2022/07/18 08:03:30;;;;;;;1.17;0.77;;;39.40;25.90;;;;;;5092604;28;20032;-75
2022/07/18 08:05:56;;;;;;;1.35;0.90;;;40.10;25.30;;;;;;5092973;28;20028;-75
2022/07/18 08:08:22;;;;;;;3.08;0.80;;;40.30;25.10;;;;;;5092343;28;20031;-74
2022/07/18 08:10:48;;;;;;;0.93;0.90;;;40.70;24.90;;;;;;5092634;28;20026;-75
2022/07/18 08:13:14;;;;;;;1.88;0.82;;;41.10;24.40;;;;;;5092841;28;20036;-75
2022/07/18 08:15:40;;;;;;;1.25;0.70;;;41.50;24.20;;;;;;5092413;28;20036;-74
2022/07/18 08:18:06;;;;;;;2.90;0.77;;;41.60;23.80;;;;;;5092546;28;20472;-75
2022/07/18 08:20:33;;;;;;;3.45;0.95;;;41.90;23.70;;;;;;5092266;28;20034;-74
2022/07/18 08:23:00;;;;;;;1.23;0.70;;;42.00;23.80;;;;;;5092942;28;20024;-75
2022/07/18 08:25:27;;;;;;;2.42;0.73;;;42.20;23.80;;;;;;5092510;28;20476;-75
2022/07/18 08:27:53;;;;;;;1.25;0.80;;;42.10;23.50;;;;;;5092747;28;20111;-75
2022/07/18 08:30:19;;;;;;;2.55;0.90;;;42.20;23.60;;;;;;5093010;28;20044;-74
2022/07/18 08:32:45;;;;;;;1.13;0.60;;;41.90;23.50;;;;;;5092334;28;20050;-75
2022/07/18 08:35:10;;;;;;;0.88;0.60;;;41.50;23.50;;;;;;5092504;28;20361;-75
2022/07/18 08:37:36;;;;;;;0.95;0.50;;;41.30;24.00;;;;;;5092202;28;20024;-75
2022/07/18 08:40:03;;;;;;;1.55;0.73;;;41.10;23.90;;;;;;5092230;28;20030;-75
2022/07/18 08:42:28;;;;;;;1.77;0.60;;;41.10;23.60;;;;;;5092240;28;20032;-75
2022/07/18 08:44:56;;;;;;;0.73;0.55;;;41.10;23.50;;;;;;5092554;28;20020;-75
2022/07/18 08:47:22;;;;;;;1.40;0.85;;;40.50;23.40;;;;;;5092625;28;20024;-74
2022/07/18 08:49:48;;;;;;;0.80;0.80;;;39.60;23.50;;;;;;5092798;28;20107;-75
2022/07/18 08:52:15;;;;;;;1.10;0.57;;;39.10;23.80;;;;;;5092383;28;20035;-75
2022/07/18 08:54:41;;;;;;;1.42;0.68;;;38.30;23.70;;;;;;5092092;28;20024;-75
2022/07/18 08:57:07;;;;;;;1.83;0.90;;;37.20;24.40;;;;;;5092594;28;20024;-74
2022/07/18 08:59:32;;;;;;;1.67;0.80;;;36.40;24.50;;;;;;5091937;28;20551;-74
2022/07/18 09:01:58;;;;;;;1.80;0.90;;;35.70;25.30;;;;;;5092422;28;20469;-74
2022/07/18 09:04:38;;;;;;;1.90;1.02;;;35.10;25.50;;;;;;5091904;28;20031;-74
2022/07/18 09:07:08;;;;;;;1.55;0.50;;;34.50;25.60;;;;;;5092361;28;20028;-74
2022/07/18 09:09:37;;;;;;;3.60;0.80;;;34.10;26.20;;;;;;5090875;28;20082;-75
2022/07/18 09:12:06;;;;;;;3.85;0.73;;;33.60;26.80;;;;;;5092349;28;20020;-74
2022/07/18 09:14:41;;;;;;;2.50;0.60;;;33.30;27.40;;;;;;5091857;28;20467;-74
2022/07/18 09:17:10;;;;;;;3.03;0.70;;;33.20;28.00;;;;;;5092197;28;20500;-75
2022/07/18 09:19:38;;;;;;;2.72;0.75;;;32.80;27.20;;;;;;5091840;28;20480;-75
2022/07/18 09:22:20;;;;;;;0.88;0.70;;;32.60;27.80;;;;;;5093604;28;20032;-74
2022/07/18 09:24:56;;;;;;;1.60;1.30;;;32.30;27.60;;;;;;5095342;28;20392;-75
2022/07/18 09:27:27;;;;;;;1.30;1.20;;;32.20;28.60;;;;;;5095240;28;20035;-74
2022/07/18 09:30:11;;;;;;;2.30;1.00;;;32.00;28.00;;;;;;5095401;28;20048;-74
2022/07/18 09:32:40;;;;;;;0.80;0.60;;;31.70;28.30;;;;;;5095347;28;20112;-74
2022/07/18 09:35:17;;;;;;;1.13;0.45;;;31.50;28.50;;;;;;5095872;28;20037;-74
2022/07/18 09:37:53;;;;;;;1.27;0.70;;;31.30;28.30;;;;;;5095423;28;20496;-74
2022/07/18 09:40:21;;;;;;;3.65;1.10;;;31.20;28.80;;;;;;5095802;28;20069;-75
2022/07/18 09:42:55;;;;;;;2.85;0.90;;;31.00;28.50;;;;;;5095268;28;20487;-74
2022/07/18 09:45:29;;;;;;;6.65;1.02;;;30.90;28.80;;;;;;5095392;28;20032;-74
2022/07/18 09:47:58;;;;;;;3.70;1.10;;;30.80;28.80;;;;;;5095719;28;20112;-75
2022/07/18 09:50:31;;;;;;;7.47;2.65;;;30.80;29.20;;;;;;5095460;28;20031;-75
2022/07/18 09:53:02;;;;;;;1.83;1.33;;;30.60;28.70;;;;;;5095563;28;20024;-74
2022/07/18 09:55:27;;;;;;;1.58;0.80;;;30.50;29.10;;;;;;5095103;28;20024;-74
2022/07/18 09:58:02;;;;;;;1.27;0.60;;;30.50;30.00;;;;;;5095171;28;20085;-74
2022/07/18 10:00:31;;;;;;;1.70;1.10;;;30.60;29.80;;;;;;5095036;28;20016;-73
2022/07/18 10:02:59;;;;;;;0.70;0.57;;;30.40;28.60;;;;;;5093851;28;20465;-75
2022/07/18 10:05:27;;;;;;;1.20;0.52;;;30.30;28.60;;;;;;5094777;28;20471;-75
2022/07/18 10:07:53;;;;;;;2.05;0.70;;;30.30;28.70;;;;;;5095065;28;20044;-74
2022/07/18 10:10:19;;;;;;;1.65;0.70;;;30.30;28.60;;;;;;5094854;28;20089;-74
2022/07/18 10:12:45;;;;;;;1.88;0.70;;;30.20;28.70;;;;;;5094572;28;20062;-74
2022/07/18 10:15:10;;;;;;;0.93;0.80;;;30.30;28.70;;;;;;5094661;28;20056;-74
2022/07/18 10:17:36;;;;;;;1.58;0.70;;;30.20;28.20;;;;;;5094079;28;20092;-74
2022/07/18 10:20:06;;;;;;;2.58;0.60;;;30.10;27.90;;;;;;5094861;28;20063;-74
2022/07/18 10:22:38;;;;;;;1.40;0.63;;;30.10;27.70;;;;;;5094236;28;20028;-75
2022/07/18 10:25:05;;;;;;;0.82;0.60;;;30.10;28.60;;;;;;5094690;28;20038;-75
2022/07/18 10:27:48;;;;;;;0.90;0.70;;;30.00;27.90;;;;;;5094060;28;20039;-74
2022/07/18 10:30:14;;;;;;;0.90;0.57;;;29.90;27.30;;;;;;5094838;28;20044;-74
2022/07/18 10:32:41;;;;;;;0.50;0.43;;;29.90;27.70;;;;;;5093604;28;20024;-74
2022/07/18 10:35:08;;;;;;;0.65;0.60;;;29.90;28.30;;;;;;5093427;28;20530;-75
2022/07/18 10:37:35;;;;;;;2.15;0.60;;;29.90;28.90;;;;;;5094077;28;20023;-74
2022/07/18 10:40:24;;;;;;;2.58;0.50;;;30.00;29.90;;;;;;5094401;28;20032;-75
2022/07/18 10:43:28;;;;;;;1.70;0.73;;;30.00;29.50;;;;;;5094026;28;20103;-74
2022/07/18 10:45:54;;;;;;;1.17;0.60;;;30.10;29.20;;;;;;5093983;28;20024;-75
2022/07/18 10:48:35;;;;;;;1.20;0.70;;;30.20;29.40;;;;;;5094140;28;20028;-74
2022/07/18 10:51:08;;;;;;;1.10;0.55;;;30.10;26.80;;;;;;5094163;28;20035;-74
2022/07/18 10:53:52;;;;;;;0.35;0.35;;;30.10;26.90;;;;;;5093839;28;20028;-73
2022/07/18 10:56:18;;;;;;;0.65;0.60;;;30.00;26.60;;;;;;5094184;28;20541;-73
2022/07/18 10:58:44;;;;;;;3.10;1.52;;;29.90;26.30;;;;;;5093624;28;20064;-75
2022/07/18 11:01:16;;;;;;;0.90;0.80;;;29.80;26.40;;;;;;5094316;28;20056;-74
2022/07/18 11:03:42;;;;;;;2.97;0.73;;;29.80;26.50;;;;;;5093429;28;20020;-74
2022/07/18 11:06:08;;;;;;;1.30;0.52;;;29.60;26.20;;;;;;5094047;28;20058;-74
2022/07/18 11:08:34;;;;;;;1.95;0.73;;;29.60;26.30;;;;;;5093514;28;20028;-75
2022/07/18 11:11:03;;;;;;;0.82;0.50;;;29.60;26.40;;;;;;5093790;28;20020;-74
2022/07/18 11:13:41;;;;;;;1.52;0.60;;;29.70;27.00;;;;;;5093775;28;20028;-74
2022/07/18 11:16:25;;;;;;;0.88;0.60;;;29.80;27.30;;;;;;5093421;28;20043;-74
2022/07/18 11:18:51;;;;;;;1.02;0.57;;;29.80;26.50;;;;;;5072838;28;20115;-74
2022/07/18 11:21:32;;;;;;;1.00;0.70;;;29.90;26.70;;;;;;5073238;28;20024;-74
2022/07/18 11:24:10;;;;;;;2.22;0.80;;;29.80;26.30;;;;;;5073357;28;20055;-74
2022/07/18 11:26:38;;;;;;;1.73;0.68;;;29.90;26.90;;;;;;5072794;28;20031;-74
2022/07/18 11:29:11;;;;;;;0.77;0.50;;;29.90;26.30;;;;;;5084672;28;20131;-74
2022/07/18 11:31:45;;;;;;;0.63;0.52;;;29.90;26.30;;;;;;5093416;28;20115;-74
2022/07/18 11:34:11;;;;;;;1.25;0.70;;;29.80;26.50;;;;;;5093551;28;20050;-74
2022/07/18 11:36:39;;;;;;;1.33;0.60;;;29.80;26.40;;;;;;5093000;28;20518;-74
2022/07/18 11:39:05;;;;;;;0.77;0.60;;;29.90;26.60;;;;;;5093252;28;20028;-73
2022/07/18 11:41:31;;;;;;;1.65;0.90;;;30.00;26.60;;;;;;5092982;28;20039;-74
2022/07/18 11:43:57;;;;;;;2.38;0.70;;;30.10;26.40;;;;;;5092711;28;20024;-73
2022/07/18 11:46:27;;;;;;;2.15;0.60;;;30.00;26.30;;;;;;5092953;28;20032;-73
2022/07/18 11:49:04;;;;;;;0.70;0.50;;;30.10;26.60;;;;;;5092752;28;20035;-74
2022/07/18 11:51:43;;;;;;;1.40;0.60;;;30.10;26.40;;;;;;5092887;28;20028;-74
2022/07/18 11:54:10;;;;;;;2.40;1.10;;;30.10;26.30;;;;;;5093221;28;20031;-74
2022/07/18 11:56:47;;;;;;;1.08;0.98;;;30.00;26.40;;;;;;5093010;28;20028;-74
2022/07/18 11:59:13;;;;;;;1.02;0.70;;;30.00;26.50;;;;;;5092987;28;20039;-74
2022/07/18 12:01:39;;;;;;;0.90;0.60;;;30.10;26.70;;;;;;5092548;28;20032;-74
2022/07/18 12:04:05;;;;;;;1.25;0.82;;;30.10;27.20;;;;;;5092919;28;20137;-74
2022/07/18 12:06:30;;;;;;;0.77;0.65;;;30.10;27.00;;;;;;5093047;28;20028;-74
2022/07/18 12:09:03;;;;;;;0.57;0.57;;;30.10;26.80;;;;;;5092398;28;20039;-75
2022/07/18 12:11:32;;;;;;;0.75;0.57;;;30.10;26.30;;;;;;5093086;28;20101;-74
2022/07/18 12:13:57;;;;;;;1.92;0.60;;;30.00;26.40;;;;;;5092702;28;20047;-74
2022/07/18 12:16:29;;;;;;;0.65;0.65;;;30.00;27.10;;;;;;5091589;28;20384;-74
2022/07/18 12:19:15;;;;;;;0.60;0.50;;;30.00;26.80;;;;;;5092586;28;20035;-74
2022/07/18 12:21:52;;;;;;;0.47;0.47;;;29.90;27.10;;;;;;5092586;28;20034;-73
2022/07/18 12:24:18;;;;;;;1.95;0.63;;;29.80;27.10;;;;;;5092969;28;20028;-74
2022/07/18 12:26:44;;;;;;;3.13;1.10;;;29.80;27.00;;;;;;5092396;28;20111;-73
2022/07/18 12:29:10;;;;;;;0.80;0.77;;;29.80;27.30;;;;;;5092730;28;20044;-74
2022/07/18 12:31:37;;;;;;;2.25;1.13;;;29.70;26.60;;;;;;5092929;28;20060;-73
2022/07/18 12:34:11;;;;;;;1.42;0.60;;;29.70;26.80;;;;;;5092512;28;20466;-74
2022/07/18 12:36:55;;;;;;;0.50;0.50;;;29.60;26.70;;;;;;5092701;28;20028;-74
2022/07/18 12:39:33;;;;;;;2.17;0.60;;;29.60;26.50;;;;;;5092398;28;20115;-74
2022/07/18 12:42:00;;;;;;;1.25;0.60;;;29.50;26.70;;;;;;5092251;28;20055;-74
2022/07/18 12:44:27;;;;;;;3.10;0.70;;;29.50;26.70;;;;;;5092998;28;20028;-74
2022/07/18 12:46:54;;;;;;;0.90;0.60;;;29.40;26.70;;;;;;5092178;28;20050;-74
2022/07/18 12:49:20;;;;;;;1.17;0.65;;;29.40;26.70;;;;;;5092531;28;20073;-74
2022/07/18 12:51:46;;;;;;;0.50;0.43;;;29.40;27.20;;;;;;5091988;28;20077;-74